Time;durP1;ratioP1;P1;durP2;ratioP2;P2;SDS_P1;SDS_P2;PMS_P1;PMS_P2;Temp;Humidity;BMP_temperature;BMP_pressure;BME280_temperature;BME280_humidity;BME280_pressure;Samples;Min_cycle;Max_cycle;Signal;HPM_P1;HPM_P2
2023/01/31 00:02:54;;;;;;;14.00;5.77;;;3.30;67.00;;;;;;6265830;28;20653;-81
2023/01/31 00:05:57;;;;;;;10.33;5.97;;;3.30;67.10;;;;;;6261708;28;20253;-78
2023/01/31 00:09:01;;;;;;;13.87;6.33;;;3.20;67.10;;;;;;6291740;28;20226;-81
2023/01/31 00:12:06;;;;;;;17.33;6.60;;;3.20;67.20;;;;;;6297993;28;20259;-76
2023/01/31 00:15:15;;;;;;;18.83;6.37;;;3.10;67.30;;;;;;6295125;28;20219;-77
2023/01/31 00:18:18;;;;;;;16.53;5.60;;;3.20;67.40;;;;;;6289221;28;20332;-74
2023/01/31 00:21:24;;;;;;;15.57;5.40;;;3.10;67.60;;;;;;6288087;28;20444;-76
2023/01/31 00:24:27;;;;;;;16.40;7.13;;;3.10;67.70;;;;;;6279032;28;20329;-76
2023/01/31 00:27:32;;;;;;;13.47;5.87;;;3.10;67.80;;;;;;6262059;28;21013;-79
2023/01/31 00:30:36;;;;;;;15.30;5.50;;;3.10;67.90;;;;;;6262964;28;20246;-79
2023/01/31 00:33:42;;;;;;;20.90;5.97;;;3.10;68.00;;;;;;6258106;28;20624;-78
2023/01/31 00:36:45;;;;;;;11.50;6.00;;;3.10;68.00;;;;;;6263731;28;20260;-79
2023/01/31 00:39:48;;;;;;;13.10;5.93;;;3.10;68.00;;;;;;6262896;28;20253;-77
2023/01/31 00:42:53;;;;;;;15.00;4.57;;;3.10;68.00;;;;;;6266946;28;20253;-81
2023/01/31 00:45:56;;;;;;;15.13;5.43;;;3.10;68.00;;;;;;6274040;28;20232;-76
2023/01/31 00:49:00;;;;;;;11.33;6.17;;;3.10;67.80;;;;;;6269960;28;20241;-78
2023/01/31 00:52:04;;;;;;;11.40;5.13;;;3.10;67.70;;;;;;6271010;28;20261;-76
2023/01/31 00:55:07;;;;;;;16.97;6.33;;;3.10;67.80;;;;;;6291709;28;20236;-76
2023/01/31 00:58:12;;;;;;;11.33;4.87;;;3.10;68.00;;;;;;6290618;28;20312;-80
2023/01/31 01:01:17;;;;;;;10.77;5.27;;;3.10;68.00;;;;;;6263245;28;20238;-78
2023/01/31 01:04:20;;;;;;;12.23;5.50;;;3.10;68.00;;;;;;6264572;28;20261;-79
2023/01/31 01:07:23;;;;;;;12.77;4.80;;;3.20;67.70;;;;;;6261965;28;20244;-80
2023/01/31 01:10:27;;;;;;;13.33;5.70;;;3.30;67.80;;;;;;6260300;28;20675;-78
2023/01/31 01:13:31;;;;;;;12.93;5.30;;;3.30;67.60;;;;;;6261958;28;20237;-78
2023/01/31 01:16:37;;;;;;;18.27;5.77;;;3.30;67.30;;;;;;6262125;28;20241;-79
2023/01/31 01:19:40;;;;;;;15.00;5.50;;;3.30;67.30;;;;;;6247303;28;20280;-78
2023/01/31 01:22:43;;;;;;;9.87;5.23;;;3.40;67.40;;;;;;6239006;28;20303;-78
2023/01/31 01:25:46;;;;;;;10.50;4.83;;;3.30;67.30;;;;;;6240549;28;20619;-77
2023/01/31 01:28:53;;;;;;;10.47;5.03;;;3.40;67.10;;;;;;6236132;28;20246;-79
2023/01/31 01:31:56;;;;;;;12.57;5.23;;;3.40;67.00;;;;;;6236595;28;20238;-78
2023/01/31 01:34:59;;;;;;;14.87;5.70;;;3.40;67.20;;;;;;6258660;28;20325;-78
2023/01/31 01:38:02;;;;;;;20.63;6.03;;;3.40;67.00;;;;;;6260167;28;20855;-81
2023/01/31 01:41:06;;;;;;;15.43;5.60;;;3.40;67.20;;;;;;6258157;28;20291;-81
2023/01/31 01:44:46;;;;;;;14.97;5.83;;;3.50;67.00;;;;;;6264786;28;20291;-79
2023/01/31 01:47:54;;;;;;;9.53;5.50;;;3.40;67.00;;;;;;6259595;28;20408;-81
2023/01/31 01:50:58;;;;;;;10.33;5.20;;;3.50;66.90;;;;;;6260649;28;20238;-77
2023/01/31 01:54:06;;;;;;;11.63;5.47;;;3.50;67.10;;;;;;6251199;28;20242;-79
2023/01/31 01:57:11;;;;;;;11.30;5.40;;;3.50;66.90;;;;;;6259076;28;20241;-79
2023/01/31 02:00:19;;;;;;;13.07;5.10;;;3.50;66.90;;;;;;6259312;28;20634;-81
2023/01/31 02:03:23;;;;;;;12.07;4.77;;;3.50;66.80;;;;;;6252194;28;20819;-78
2023/01/31 02:06:26;;;;;;;8.70;4.60;;;3.50;66.70;;;;;;6260971;28;20709;-78
2023/01/31 02:09:35;;;;;;;10.47;5.53;;;3.50;67.00;;;;;;6236974;28;20728;-80
2023/01/31 02:12:39;;;;;;;8.57;4.73;;;3.50;67.00;;;;;;6239125;28;20235;-81
2023/01/31 02:15:44;;;;;;;18.77;5.80;;;3.50;67.30;;;;;;6239663;28;20610;-78
2023/01/31 02:18:48;;;;;;;8.83;4.73;;;3.40;67.20;;;;;;6258584;28;20729;-78
2023/01/31 02:22:11;;;;;;;16.27;5.23;;;3.50;67.30;;;;;;6264009;28;20272;-77
2023/01/31 02:25:44;;;;;;;15.73;4.73;;;3.50;67.30;;;;;;6263532;28;20238;-79
2023/01/31 02:29:33;;;;;;;15.57;5.73;;;3.50;67.30;;;;;;6263622;28;20238;-78
2023/01/31 02:32:48;;;;;;;10.43;5.40;;;3.50;67.50;;;;;;6199120;28;20249;-80
2023/01/31 02:36:01;;;;;;;13.53;5.17;;;3.50;67.50;;;;;;6232738;28;20370;-80
2023/01/31 02:39:17;;;;;;;13.80;5.07;;;3.50;67.40;;;;;;6261849;28;20968;-80
2023/01/31 02:42:26;;;;;;;9.80;4.80;;;3.50;67.20;;;;;;6262560;28;20472;-80
2023/01/31 02:45:39;;;;;;;8.03;4.93;;;3.50;67.00;;;;;;6262699;28;20345;-79
2023/01/31 02:48:52;;;;;;;10.47;4.60;;;3.50;67.00;;;;;;6257224;28;20365;-77
2023/01/31 02:58:40;;;;;;;13.30;5.00;;;3.30;67.10;;;;;;6254171;28;20650;-79
2023/01/31 03:01:47;;;;;;;14.87;5.13;;;3.30;67.40;;;;;;6263216;28;20636;-78
2023/01/31 03:04:52;;;;;;;8.50;4.87;;;3.20;67.50;;;;;;6266819;28;20241;-76
2023/01/31 03:07:59;;;;;;;11.03;5.27;;;3.10;67.60;;;;;;6262655;28;20241;-81
2023/01/31 03:11:05;;;;;;;6.90;5.47;;;3.00;67.90;;;;;;6261843;28;20314;-80
2023/01/31 03:14:21;;;;;;;11.77;5.03;;;3.00;68.00;;;;;;6264196;28;20673;-81
2023/01/31 03:17:31;;;;;;;9.93;5.20;;;2.90;68.30;;;;;;6256891;28;20249;-78
2023/01/31 03:20:43;;;;;;;13.13;5.60;;;2.90;68.60;;;;;;6253296;28;20883;-80
2023/01/31 03:23:51;;;;;;;15.97;5.07;;;2.80;68.80;;;;;;6240880;28;20691;-78
2023/01/31 03:26:57;;;;;;;10.30;5.43;;;2.80;69.20;;;;;;6253518;28;20230;-78
2023/01/31 03:30:05;;;;;;;14.10;5.20;;;2.80;69.10;;;;;;6258220;28;20244;-79
2023/01/31 03:33:13;;;;;;;11.97;5.10;;;2.70;69.40;;;;;;6270202;28;20244;-78
2023/01/31 03:36:26;;;;;;;13.07;5.80;;;2.60;69.60;;;;;;6262935;28;20230;-81
2023/01/31 03:39:37;;;;;;;12.47;5.30;;;2.70;69.60;;;;;;6261240;28;20234;-80
2023/01/31 03:42:46;;;;;;;12.20;4.93;;;2.60;69.60;;;;;;6253464;28;20237;-79
2023/01/31 03:45:52;;;;;;;10.37;5.00;;;2.60;69.80;;;;;;6246552;28;20337;-79
2023/01/31 03:48:58;;;;;;;8.87;5.77;;;2.50;69.80;;;;;;6236235;28;20235;-79
2023/01/31 03:52:07;;;;;;;11.40;5.17;;;2.60;69.90;;;;;;6261639;28;20281;-80
2023/01/31 03:55:15;;;;;;;7.73;4.77;;;2.50;70.10;;;;;;6235869;28;20231;-80
2023/01/31 03:58:20;;;;;;;13.70;5.10;;;2.50;70.30;;;;;;6250233;28;20230;-80
2023/01/31 04:01:27;;;;;;;14.23;5.30;;;2.50;70.20;;;;;;6263433;28;20246;-80
2023/01/31 04:04:36;;;;;;;10.50;5.27;;;2.50;70.40;;;;;;6280707;28;20249;-78
2023/01/31 04:07:41;;;;;;;10.07;5.13;;;2.50;70.50;;;;;;6245872;28;20242;-78
2023/01/31 04:10:44;;;;;;;7.23;5.47;;;2.50;70.70;;;;;;6259885;28;20238;-77
2023/01/31 04:13:47;;;;;;;10.87;4.93;;;2.40;70.90;;;;;;6261911;28;20709;-78
2023/01/31 04:16:50;;;;;;;12.00;4.60;;;2.40;70.90;;;;;;6260598;28;20705;-78
2023/01/31 04:19:53;;;;;;;12.73;5.10;;;2.50;70.80;;;;;;6261364;28;20238;-79
2023/01/31 04:22:59;;;;;;;19.77;5.90;;;2.50;70.90;;;;;;6261230;28;20253;-77
2023/01/31 04:26:02;;;;;;;12.57;5.47;;;2.50;71.10;;;;;;6260946;28;20288;-78
2023/01/31 04:29:05;;;;;;;17.80;6.57;;;2.50;71.20;;;;;;6261768;28;20242;-79
2023/01/31 04:32:09;;;;;;;14.53;5.40;;;2.50;71.30;;;;;;6241627;28;20233;-75
2023/01/31 04:35:12;;;;;;;13.97;5.50;;;2.50;71.50;;;;;;6257184;28;20280;-79
2023/01/31 04:38:17;;;;;;;9.37;5.23;;;2.50;71.50;;;;;;6259248;28;20230;-80
2023/01/31 04:41:20;;;;;;;16.37;5.50;;;2.40;71.60;;;;;;6258230;28;20253;-78
2023/01/31 04:44:25;;;;;;;16.03;5.63;;;2.40;71.70;;;;;;6267403;28;20233;-81
2023/01/31 04:47:28;;;;;;;7.07;5.23;;;2.40;71.80;;;;;;6259351;28;20229;-79
2023/01/31 04:50:31;;;;;;;6.77;5.37;;;2.40;71.90;;;;;;6259297;28;20233;-79
2023/01/31 04:53:36;;;;;;;11.60;5.40;;;2.50;71.90;;;;;;6260226;28;20308;-79
2023/01/31 04:56:41;;;;;;;14.37;5.80;;;2.50;71.90;;;;;;6264105;28;20244;-78
2023/01/31 04:59:46;;;;;;;11.30;5.37;;;2.50;72.00;;;;;;6261316;28;20234;-80
2023/01/31 05:02:50;;;;;;;12.50;5.13;;;2.40;72.20;;;;;;6266564;28;20237;-78
2023/01/31 05:05:53;;;;;;;13.50;5.23;;;2.40;72.30;;;;;;6271801;28;20237;-77
2023/01/31 05:09:00;;;;;;;12.63;6.03;;;2.40;72.10;;;;;;6260320;28;20264;-76
2023/01/31 05:12:04;;;;;;;8.73;4.70;;;2.50;72.20;;;;;;6271536;28;20718;-78
2023/01/31 05:15:10;;;;;;;13.90;5.30;;;2.40;72.30;;;;;;6263096;28;20736;-78
2023/01/31 05:18:13;;;;;;;11.97;5.23;;;2.50;72.30;;;;;;6262607;28;20760;-78
2023/01/31 05:21:16;;;;;;;13.70;5.33;;;2.50;72.30;;;;;;6264734;28;20241;-78
2023/01/31 05:24:21;;;;;;;10.43;5.27;;;2.50;72.30;;;;;;6264296;28;20241;-77
2023/01/31 05:27:24;;;;;;;9.63;4.87;;;2.50;72.50;;;;;;6271737;28;20594;-79
2023/01/31 05:30:28;;;;;;;12.00;4.60;;;2.50;72.50;;;;;;6264305;28;20309;-78
2023/01/31 05:33:32;;;;;;;14.97;5.33;;;2.50;72.60;;;;;;6262647;28;20286;-78
2023/01/31 05:36:35;;;;;;;7.17;4.83;;;2.50;72.70;;;;;;6257183;28;20230;-81
2023/01/31 05:39:39;;;;;;;13.00;5.40;;;2.50;72.50;;;;;;6261738;28;20868;-78
2023/01/31 05:42:43;;;;;;;10.13;4.73;;;2.70;72.30;;;;;;6265901;28;20241;-79
2023/01/31 05:45:48;;;;;;;9.33;5.07;;;2.70;72.20;;;;;;6267555;28;20238;-81
2023/01/31 05:48:52;;;;;;;7.83;4.70;;;2.70;72.20;;;;;;6284401;28;20297;-80
2023/01/31 05:51:55;;;;;;;16.47;5.40;;;2.70;72.10;;;;;;6283788;28;20229;-78
2023/01/31 05:54:59;;;;;;;12.63;5.10;;;2.80;72.10;;;;;;6270513;28;20272;-78
2023/01/31 05:58:02;;;;;;;14.70;5.63;;;2.90;72.00;;;;;;6275250;28;20311;-80
2023/01/31 06:01:06;;;;;;;18.30;5.63;;;2.90;72.00;;;;;;6276092;28;20368;-80
2023/01/31 06:04:10;;;;;;;9.77;5.50;;;3.00;72.10;;;;;;6271945;28;20245;-79
2023/01/31 06:07:13;;;;;;;10.43;5.00;;;3.00;72.10;;;;;;6267959;28;20867;-78
2023/01/31 06:10:18;;;;;;;13.87;5.93;;;3.10;72.00;;;;;;6266039;28;20698;-80
2023/01/31 06:13:23;;;;;;;12.43;6.10;;;3.10;72.10;;;;;;6270951;28;20242;-79
2023/01/31 06:16:26;;;;;;;14.10;5.47;;;3.10;72.00;;;;;;6267024;28;20487;-79
2023/01/31 06:19:29;;;;;;;9.60;5.60;;;3.10;72.00;;;;;;6268669;28;20342;-76
2023/01/31 06:22:32;;;;;;;8.83;5.43;;;3.20;71.80;;;;;;6272096;28;20251;-78
2023/01/31 06:25:37;;;;;;;12.07;5.53;;;3.20;71.80;;;;;;6268427;28;20524;-78
2023/01/31 06:28:40;;;;;;;14.47;5.73;;;3.20;71.90;;;;;;6267405;28;20229;-76
2023/01/31 06:31:44;;;;;;;17.07;5.60;;;3.20;71.80;;;;;;6269891;28;20237;-78
2023/01/31 06:34:48;;;;;;;12.77;5.43;;;3.20;71.90;;;;;;6274094;28;20238;-77
2023/01/31 06:37:51;;;;;;;12.13;5.50;;;3.30;71.80;;;;;;6266736;28;20229;-77
2023/01/31 06:40:56;;;;;;;14.27;5.67;;;3.30;71.80;;;;;;6276574;28;20740;-76
2023/01/31 06:43:59;;;;;;;12.80;5.27;;;3.30;71.90;;;;;;6266982;28;20252;-78
2023/01/31 06:47:02;;;;;;;11.60;5.50;;;3.30;71.80;;;;;;6265698;28;20333;-79
2023/01/31 06:50:06;;;;;;;16.67;5.70;;;3.30;71.80;;;;;;6266577;28;20237;-78
2023/01/31 06:53:09;;;;;;;13.33;5.00;;;3.40;71.80;;;;;;6261344;28;20907;-78
2023/01/31 06:56:14;;;;;;;10.90;5.07;;;3.40;71.80;;;;;;6265491;28;20244;-79
2023/01/31 06:59:17;;;;;;;14.73;5.37;;;3.40;72.00;;;;;;6268466;28;20292;-80
2023/01/31 07:02:20;;;;;;;13.97;5.53;;;3.50;72.00;;;;;;6272714;28;20377;-79
2023/01/31 07:05:24;;;;;;;10.60;5.43;;;3.40;72.10;;;;;;6294693;28;20232;-79
2023/01/31 07:08:27;;;;;;;14.73;5.20;;;3.50;72.10;;;;;;6299934;28;20226;-79
2023/01/31 07:11:32;;;;;;;7.90;5.33;;;3.50;72.20;;;;;;6297478;28;20233;-77
2023/01/31 07:14:35;;;;;;;15.17;5.37;;;3.50;72.30;;;;;;6289593;28;20289;-78
2023/01/31 07:17:38;;;;;;;13.73;5.57;;;3.50;72.60;;;;;;6288244;28;20222;-77
2023/01/31 07:20:42;;;;;;;7.23;4.90;;;3.50;72.80;;;;;;6259459;28;20236;-76
2023/01/31 07:23:45;;;;;;;10.37;5.00;;;3.50;72.80;;;;;;6267505;28;20242;-77
2023/01/31 07:26:52;;;;;;;6.77;4.63;;;3.50;73.20;;;;;;6268676;28;20230;-77
2023/01/31 07:29:55;;;;;;;12.13;5.20;;;3.50;73.30;;;;;;6264469;28;20756;-77
2023/01/31 07:32:59;;;;;;;8.17;5.50;;;3.50;73.40;;;;;;6278923;28;20245;-77
2023/01/31 07:36:03;;;;;;;9.87;5.37;;;3.50;73.40;;;;;;6258114;28;20303;-79
2023/01/31 07:39:07;;;;;;;14.93;5.60;;;3.50;73.50;;;;;;6271779;28;20277;-80
2023/01/31 07:42:11;;;;;;;12.13;6.17;;;3.50;73.50;;;;;;6283920;28;20267;-78
2023/01/31 07:45:16;;;;;;;19.67;6.57;;;3.50;73.60;;;;;;6290785;28;20264;-78
2023/01/31 07:48:25;;;;;;;12.97;5.40;;;3.50;73.70;;;;;;6299214;28;20230;-76
2023/01/31 07:51:28;;;;;;;11.70;5.30;;;3.50;73.80;;;;;;6297077;28;20233;-77
2023/01/31 07:54:31;;;;;;;13.30;6.20;;;3.50;73.80;;;;;;6280175;28;20291;-77
2023/01/31 07:57:36;;;;;;;13.57;6.33;;;3.50;73.90;;;;;;6267388;28;20230;-78
2023/01/31 08:04:00;;;;;;;18.50;6.37;;;3.60;73.70;;;;;;6264077;28;20246;-76
2023/01/31 08:07:22;;;;;;;18.43;5.73;;;3.60;73.60;;;;;;6262842;28;20316;-78
2023/01/31 08:10:25;;;;;;;11.80;5.30;;;3.70;73.50;;;;;;6262035;28;20245;-79
2023/01/31 08:13:29;;;;;;;12.70;5.67;;;3.70;73.60;;;;;;6261940;28;20248;-77
2023/01/31 08:16:32;;;;;;;13.90;5.67;;;3.70;73.60;;;;;;6264140;28;20237;-77
2023/01/31 08:19:36;;;;;;;24.13;6.60;;;3.70;73.70;;;;;;6266419;28;20241;-78
2023/01/31 08:22:40;;;;;;;11.27;5.43;;;3.70;73.70;;;;;;6249613;28;20242;-77
2023/01/31 08:25:43;;;;;;;13.40;5.20;;;3.70;73.60;;;;;;6276183;28;20254;-78
2023/01/31 08:28:49;;;;;;;16.33;6.03;;;3.80;73.60;;;;;;6269055;28;20615;-76
2023/01/31 08:31:53;;;;;;;10.33;5.00;;;3.90;73.40;;;;;;6267225;28;20294;-78
2023/01/31 08:34:56;;;;;;;11.03;4.87;;;3.90;73.60;;;;;;6267695;28;20249;-81
2023/01/31 08:38:20;;;;;;;6.07;4.80;;;3.90;73.70;;;;;;6344423;27;20344;-76
2023/01/31 08:41:26;;;;;;;11.37;4.70;;;3.90;73.70;;;;;;6314496;27;20370;-77
2023/01/31 08:44:29;;;;;;;12.27;5.27;;;3.80;74.20;;;;;;6305126;27;20240;-77
2023/01/31 08:47:35;;;;;;;11.13;5.40;;;3.90;74.10;;;;;;6297778;28;20244;-77
2023/01/31 08:50:38;;;;;;;11.20;6.00;;;3.90;74.40;;;;;;6303045;28;20728;-76
2023/01/31 08:53:45;;;;;;;18.37;8.43;;;3.90;74.20;;;;;;6294450;28;20248;-77
2023/01/31 08:56:48;;;;;;;11.47;5.60;;;3.90;74.30;;;;;;6304128;28;20830;-78
2023/01/31 08:59:51;;;;;;;11.23;5.40;;;3.90;74.30;;;;;;6288479;28;20229;-79
2023/01/31 09:02:55;;;;;;;13.47;5.10;;;3.90;74.10;;;;;;6292492;28;20673;-78
2023/01/31 09:05:59;;;;;;;11.93;5.03;;;3.90;74.10;;;;;;6294293;28;20352;-80
2023/01/31 09:09:04;;;;;;;13.07;5.53;;;4.00;73.90;;;;;;6292929;28;20229;-80
2023/01/31 09:12:08;;;;;;;9.00;5.40;;;4.00;73.80;;;;;;6317937;28;20232;-79
2023/01/31 09:15:12;;;;;;;14.83;5.00;;;4.00;73.60;;;;;;6320190;28;20239;-78
2023/01/31 09:18:16;;;;;;;15.13;5.27;;;4.00;73.50;;;;;;6289373;28;20613;-79
2023/01/31 09:21:21;;;;;;;14.67;6.53;;;4.00;73.50;;;;;;6295595;28;20229;-80
2023/01/31 09:24:25;;;;;;;12.67;5.03;;;4.00;73.30;;;;;;6293908;28;20276;-79
2023/01/31 09:27:29;;;;;;;13.30;5.63;;;4.10;73.10;;;;;;6290318;28;20280;-77
2023/01/31 09:30:32;;;;;;;15.23;5.90;;;4.10;73.20;;;;;;6305910;28;20450;-79
2023/01/31 09:33:36;;;;;;;10.00;5.57;;;4.10;73.00;;;;;;6303306;28;20383;-76
2023/01/31 09:36:42;;;;;;;15.40;5.60;;;4.10;73.00;;;;;;6297759;28;20304;-76
2023/01/31 09:39:46;;;;;;;10.07;6.17;;;4.20;72.80;;;;;;6285821;28;20238;-76
2023/01/31 09:42:51;;;;;;;13.33;5.40;;;4.30;72.60;;;;;;6291942;28;20232;-77
2023/01/31 09:45:58;;;;;;;18.13;6.27;;;4.30;72.20;;;;;;6293582;28;20232;-80
2023/01/31 09:49:06;;;;;;;10.17;5.50;;;4.40;71.90;;;;;;6286498;28;20323;-77
2023/01/31 09:52:11;;;;;;;14.23;6.37;;;4.40;71.70;;;;;;6286483;28;20665;-77
2023/01/31 09:55:19;;;;;;;13.33;5.60;;;4.50;71.70;;;;;;6302567;28;20264;-77
2023/01/31 09:58:31;;;;;;;13.93;5.73;;;4.50;71.80;;;;;;6305491;28;20237;-78
2023/01/31 10:01:43;;;;;;;12.20;5.57;;;4.70;71.40;;;;;;6295620;28;20242;-77
2023/01/31 10:05:01;;;;;;;12.67;6.33;;;4.70;71.10;;;;;;6292380;28;20265;-78
2023/01/31 10:08:15;;;;;;;14.10;7.17;;;4.60;71.20;;;;;;6291708;28;20644;-78
2023/01/31 10:11:29;;;;;;;16.00;6.30;;;4.60;71.20;;;;;;6276447;28;20298;-78
2023/01/31 10:14:37;;;;;;;11.80;5.83;;;4.70;71.20;;;;;;6275805;28;20240;-77
2023/01/31 10:17:43;;;;;;;12.80;5.90;;;4.60;71.20;;;;;;6289639;28;20241;-78
2023/01/31 10:20:52;;;;;;;18.77;9.33;;;4.70;71.20;;;;;;6288298;28;20290;-78
2023/01/31 10:23:59;;;;;;;12.80;5.73;;;4.70;70.70;;;;;;6288131;28;20375;-78
2023/01/31 10:27:10;;;;;;;12.43;5.70;;;4.70;70.60;;;;;;6268601;28;20240;-78
2023/01/31 10:30:17;;;;;;;11.70;5.50;;;4.80;70.50;;;;;;6282252;28;20252;-79
2023/01/31 10:33:32;;;;;;;10.70;5.57;;;4.70;70.50;;;;;;6256541;28;20932;-78
2023/01/31 10:36:45;;;;;;;11.37;6.23;;;4.80;70.60;;;;;;6277540;28;20238;-77
2023/01/31 10:39:52;;;;;;;13.13;5.50;;;4.70;70.70;;;;;;6266164;28;20300;-79
2023/01/31 10:43:02;;;;;;;21.53;6.53;;;4.70;71.30;;;;;;6281255;28;20252;-78
2023/01/31 10:46:11;;;;;;;14.63;5.33;;;4.70;71.90;;;;;;6278004;28;20233;-76
2023/01/31 10:49:14;;;;;;;12.93;6.20;;;4.70;72.10;;;;;;6268411;28;20307;-79
2023/01/31 10:52:32;;;;;;;12.73;6.37;;;4.70;72.30;;;;;;6286544;28;20316;-78
2023/01/31 10:55:59;;;;;;;15.20;6.33;;;4.70;72.30;;;;;;6262083;28;20276;-77
2023/01/31 10:59:07;;;;;;;12.43;5.10;;;4.70;72.00;;;;;;6275221;28;20709;-79
2023/01/31 11:02:19;;;;;;;15.07;6.10;;;4.70;71.60;;;;;;6289190;28;20240;-78
2023/01/31 11:05:25;;;;;;;15.10;6.80;;;4.70;72.00;;;;;;6267952;28;20249;-78
2023/01/31 11:08:35;;;;;;;15.80;6.67;;;4.80;71.90;;;;;;6268918;28;20765;-79
2023/01/31 11:11:54;;;;;;;15.23;6.20;;;4.90;71.50;;;;;;6285764;28;20241;-77
2023/01/31 11:15:14;;;;;;;11.67;6.30;;;5.00;71.30;;;;;;6272077;28;20237;-79
2023/01/31 11:18:28;;;;;;;17.30;6.30;;;5.00;71.20;;;;;;6281476;28;20729;-79
2023/01/31 11:21:33;;;;;;;13.90;6.13;;;5.10;70.70;;;;;;6267666;28;20238;-78
2023/01/31 11:24:41;;;;;;;15.53;6.13;;;5.10;70.40;;;;;;6276035;28;20273;-80
2023/01/31 11:27:44;;;;;;;22.13;7.57;;;5.00;70.60;;;;;;6261437;28;20232;-78
2023/01/31 11:30:52;;;;;;;19.47;6.57;;;5.00;70.80;;;;;;6278179;28;20233;-78
2023/01/31 11:34:00;;;;;;;11.93;6.30;;;5.00;70.80;;;;;;6264978;28;20237;-79
2023/01/31 11:37:06;;;;;;;15.27;7.50;;;5.00;71.40;;;;;;6259498;28;20345;-80
2023/01/31 11:40:21;;;;;;;15.80;6.40;;;5.00;72.00;;;;;;6260544;28;20237;-78
2023/01/31 11:43:26;;;;;;;15.53;7.70;;;5.00;72.00;;;;;;6275950;28;20231;-77
2023/01/31 11:46:30;;;;;;;17.17;6.70;;;4.90;72.30;;;;;;6274690;28;20242;-78
2023/01/31 11:49:35;;;;;;;16.57;7.43;;;5.00;72.40;;;;;;6286912;28;20247;-77
2023/01/31 11:52:38;;;;;;;11.53;7.23;;;5.00;72.20;;;;;;6275450;28;20245;-77
2023/01/31 11:55:44;;;;;;;16.20;7.30;;;5.00;72.00;;;;;;6281889;28;20233;-77
2023/01/31 11:58:52;;;;;;;18.97;6.90;;;5.00;72.30;;;;;;6264493;28;20237;-80
2023/01/31 12:02:00;;;;;;;16.63;7.27;;;5.00;71.90;;;;;;6268743;28;20238;-80
2023/01/31 12:05:12;;;;;;;18.20;7.17;;;5.10;71.80;;;;;;6267385;28;20333;-76
2023/01/31 12:08:30;;;;;;;9.30;6.80;;;5.10;71.90;;;;;;6277553;28;20309;-79
2023/01/31 12:11:35;;;;;;;20.07;7.63;;;5.00;71.70;;;;;;6267619;28;20792;-78
2023/01/31 12:14:41;;;;;;;13.87;7.87;;;5.10;71.70;;;;;;6273872;28;20711;-78
2023/01/31 12:17:49;;;;;;;15.07;7.70;;;5.00;72.60;;;;;;6266832;28;20252;-79
2023/01/31 12:21:01;;;;;;;15.47;7.33;;;5.00;72.90;;;;;;6266048;28;20234;-78
2023/01/31 12:24:13;;;;;;;13.37;7.20;;;4.90;73.20;;;;;;6284805;28;20238;-79
2023/01/31 12:27:30;;;;;;;12.63;6.67;;;4.80;73.50;;;;;;6273349;28;20218;-78
2023/01/31 12:30:55;;;;;;;13.10;6.70;;;4.70;74.20;;;;;;6272718;28;20801;-79
2023/01/31 12:34:14;;;;;;;17.97;7.67;;;4.70;74.70;;;;;;6265781;28;20818;-77
2023/01/31 12:37:30;;;;;;;17.10;7.20;;;4.70;74.70;;;;;;6282961;28;20233;-79
2023/01/31 12:40:46;;;;;;;10.30;7.00;;;4.60;74.70;;;;;;6259866;28;20221;-78
2023/01/31 12:44:15;;;;;;;11.07;7.87;;;4.50;75.10;;;;;;6272976;28;20748;-79
2023/01/31 12:47:55;;;;;;;13.33;8.50;;;4.50;75.60;;;;;;6274696;28;20241;-79
2023/01/31 12:51:09;;;;;;;16.70;9.20;;;4.50;76.40;;;;;;6270502;28;20238;-78
2023/01/31 12:54:27;;;;;;;10.67;7.63;;;4.50;76.60;;;;;;6288942;28;20288;-77
2023/01/31 12:57:39;;;;;;;18.67;8.17;;;4.40;77.00;;;;;;6265109;28;20249;-79
2023/01/31 13:00:52;;;;;;;19.27;8.63;;;4.40;77.40;;;;;;6287534;28;20241;-81
2023/01/31 13:04:17;;;;;;;15.97;8.17;;;4.40;77.70;;;;;;6269379;28;20900;-78
2023/01/31 13:07:28;;;;;;;13.97;8.77;;;4.40;77.90;;;;;;6261156;28;20218;-80
2023/01/31 13:10:37;;;;;;;14.43;9.20;;;4.30;78.20;;;;;;6288880;28;20241;-79
2023/01/31 13:13:45;;;;;;;16.10;9.13;;;4.20;78.80;;;;;;6278546;28;20264;-80
2023/01/31 13:16:53;;;;;;;21.67;10.00;;;4.10;79.40;;;;;;6269759;28;20329;-79
2023/01/31 13:20:00;;;;;;;16.00;10.60;;;4.00;79.70;;;;;;6265669;28;20436;-79
2023/01/31 13:23:10;;;;;;;18.07;11.03;;;4.00;80.00;;;;;;6286744;28;20230;-80
2023/01/31 13:26:20;;;;;;;20.67;10.63;;;4.00;80.00;;;;;;6286414;28;20234;-79
2023/01/31 13:29:28;;;;;;;17.87;10.77;;;4.10;79.70;;;;;;6274848;28;20301;-78
2023/01/31 13:32:38;;;;;;;16.60;10.77;;;4.10;80.10;;;;;;6289328;28;20742;-78
2023/01/31 13:35:44;;;;;;;14.47;10.40;;;4.10;79.80;;;;;;6276540;28;20222;-77
2023/01/31 13:38:51;;;;;;;15.40;9.87;;;4.10;79.80;;;;;;6283795;28;20237;-78
2023/01/31 13:41:54;;;;;;;12.00;9.20;;;4.10;79.60;;;;;;6284108;28;20237;-79
2023/01/31 13:45:03;;;;;;;14.53;9.00;;;4.10;79.40;;;;;;6287203;28;20238;-76
2023/01/31 13:48:10;;;;;;;10.97;9.10;;;4.10;79.50;;;;;;6280187;28;20222;-77
2023/01/31 13:51:17;;;;;;;14.53;8.60;;;4.10;79.60;;;;;;6289081;28;20845;-78
2023/01/31 13:54:26;;;;;;;12.27;9.03;;;4.10;79.60;;;;;;6278593;28;20314;-80
2023/01/31 13:57:32;;;;;;;17.00;9.03;;;4.20;79.60;;;;;;6295289;28;20235;-77
2023/01/31 14:00:39;;;;;;;10.73;8.03;;;4.10;79.90;;;;;;6304063;28;20247;-77
2023/01/31 14:04:27;;;;;;;9.07;8.17;;;4.10;79.80;;;;;;6300089;28;20242;-78
2023/01/31 14:07:30;;;;;;;12.37;8.87;;;4.10;79.80;;;;;;6234619;28;20299;-77
2023/01/31 14:10:42;;;;;;;9.20;8.57;;;4.10;79.80;;;;;;6241865;28;20231;-78
2023/01/31 14:13:47;;;;;;;13.90;9.07;;;4.10;80.10;;;;;;6295063;28;20874;-79
2023/01/31 14:16:50;;;;;;;9.23;8.37;;;4.10;80.50;;;;;;6299976;28;20229;-78
2023/01/31 14:20:05;;;;;;;10.10;7.63;;;4.10;80.60;;;;;;6296521;28;20266;-77
2023/01/31 14:23:31;;;;;;;8.40;7.60;;;4.10;80.50;;;;;;6294529;28;20229;-77
2023/01/31 14:26:52;;;;;;;8.10;7.40;;;4.10;80.30;;;;;;6295599;28;20283;-78
2023/01/31 14:30:00;;;;;;;8.20;7.67;;;4.10;80.50;;;;;;6311773;28;20295;-76
2023/01/31 14:33:17;;;;;;;8.77;7.13;;;4.10;80.60;;;;;;6306940;28;20292;-74
2023/01/31 14:36:53;;;;;;;8.63;7.80;;;4.10;80.60;;;;;;6310753;28;20433;-76
2023/01/31 14:40:20;;;;;;;7.47;7.13;;;4.10;80.70;;;;;;6309192;28;20245;-77
2023/01/31 14:43:41;;;;;;;8.93;8.23;;;4.20;80.70;;;;;;6298967;28;20234;-77
2023/01/31 14:47:10;;;;;;;8.43;7.77;;;4.20;80.80;;;;;;6311709;28;20213;-78
2023/01/31 14:51:16;;;;;;;8.13;7.50;;;4.20;80.90;;;;;;6307209;28;20289;-77
2023/01/31 14:54:40;;;;;;;8.57;8.03;;;4.20;81.00;;;;;;6245802;28;20796;-76
2023/01/31 14:57:45;;;;;;;9.10;8.43;;;4.20;81.20;;;;;;6296649;28;20234;-77
2023/01/31 15:00:53;;;;;;;8.10;7.60;;;4.30;81.20;;;;;;6275116;28;20292;-80
2023/01/31 15:03:58;;;;;;;8.37;7.67;;;4.20;81.40;;;;;;6285937;28;20236;-78
2023/01/31 15:07:01;;;;;;;8.93;8.33;;;4.30;81.40;;;;;;6295839;28;21282;-80
2023/01/31 15:10:04;;;;;;;8.50;7.80;;;4.30;81.40;;;;;;6287227;28;20838;-78
2023/01/31 15:13:34;;;;;;;8.63;7.93;;;4.40;81.30;;;;;;6290314;28;20229;-79
2023/01/31 15:16:38;;;;;;;8.67;7.97;;;4.40;81.00;;;;;;6292445;28;20937;-77
2023/01/31 15:19:48;;;;;;;8.97;8.07;;;4.40;81.10;;;;;;6262337;28;20230;-79
2023/01/31 15:22:56;;;;;;;9.87;9.17;;;4.40;81.00;;;;;;6273016;28;20830;-79
2023/01/31 15:26:01;;;;;;;9.07;8.37;;;4.50;80.90;;;;;;6268135;28;20226;-80
2023/01/31 15:29:05;;;;;;;9.73;8.73;;;4.50;80.70;;;;;;6266790;28;20229;-79
2023/01/31 15:32:20;;;;;;;9.67;8.70;;;4.50;80.70;;;;;;6277846;28;20244;-78
2023/01/31 15:35:28;;;;;;;10.17;9.37;;;4.50;80.50;;;;;;6282882;28;20225;-80
2023/01/31 15:38:35;;;;;;;10.33;9.43;;;4.60;80.60;;;;;;6283948;28;20320;-81
2023/01/31 15:41:39;;;;;;;10.00;9.30;;;4.60;80.50;;;;;;6279176;28;20321;-81
2023/01/31 15:44:42;;;;;;;10.33;9.63;;;4.60;80.70;;;;;;6308283;28;20233;-78
2023/01/31 15:47:59;;;;;;;10.60;9.70;;;4.60;80.90;;;;;;6321285;28;20293;-78
2023/01/31 15:51:02;;;;;;;10.87;9.83;;;4.70;81.00;;;;;;6314236;28;20234;-82
2023/01/31 15:54:07;;;;;;;11.03;10.10;;;4.60;81.20;;;;;;6308854;28;20306;-77
2023/01/31 15:57:16;;;;;;;10.23;9.57;;;4.70;81.10;;;;;;6298888;28;20211;-79
2023/01/31 16:00:23;;;;;;;10.50;9.60;;;4.70;81.20;;;;;;6265120;28;20230;-78
2023/01/31 16:03:29;;;;;;;11.20;10.30;;;4.70;81.20;;;;;;6280654;28;20230;-79
2023/01/31 16:06:34;;;;;;;11.03;10.23;;;4.70;81.20;;;;;;6280636;28;20246;-79
2023/01/31 16:09:39;;;;;;;10.00;9.20;;;4.70;81.20;;;;;;6266539;28;20236;-79
2023/01/31 16:12:47;;;;;;;11.27;10.37;;;4.70;81.10;;;;;;6279237;28;20955;-78
2023/01/31 16:15:50;;;;;;;10.07;9.43;;;4.70;80.90;;;;;;6293740;28;20225;-80
2023/01/31 16:18:57;;;;;;;11.17;10.37;;;4.70;80.70;;;;;;6287444;28;20741;-80
2023/01/31 16:22:00;;;;;;;12.10;11.00;;;4.80;80.70;;;;;;6287874;28;20827;-79
2023/01/31 16:25:05;;;;;;;11.70;10.77;;;4.90;80.60;;;;;;6305550;28;20243;-78
2023/01/31 16:28:12;;;;;;;10.43;9.73;;;4.90;80.50;;;;;;6322936;28;20216;-74
2023/01/31 16:31:17;;;;;;;11.90;11.10;;;4.90;80.50;;;;;;6298844;28;20222;-80